< < Back
Terminal Aerodrome Forecast


Current Version              Previous Versions:   1  2  3  4  5  6  7  8  9  

Terminal Aerodrome Forecast

346
FTUS44 KHUN 011302 AAA
TAFHSV
TAF AMD
KHSV 011302Z 0113/0212 14005KT 5SM BR BKN008 OVC200
      TEMPO 0113/0115 3SM BR OVC004
     FM011500 20005KT P6SM VCSH SCT015 BKN150
      TEMPO 0117/0120 VRB15G25KT 4SM TSRA BKN030CB
     FM012000 27006KT P6SM VCTS BKN050CB
      TEMPO 0120/0124 4SM TSRA BKN030CB
     FM020100 19005KT P6SM VCSH BKN030=

Latest METAR

476
SAUS80 KWBC 020300
MTRHSV
METAR KHSV 020253Z 14004KT 6SM HZ SCT030 OVC150 22/19 A3003 RMK AO2
SLP161 T02220194 53008


USA.gov is the U.S. government's official web portal to all federal, state and local government web resources and services.